Time;durP1;ratioP1;P1;durP2;ratioP2;P2;SDS_P1;SDS_P2;PMS_P1;PMS_P2;Temp;Humidity;BMP_temperature;BMP_pressure;BME280_temperature;BME280_humidity;BME280_pressure;Samples;Min_cycle;Max_cycle;Signal;HPM_P1;HPM_P2
2021/05/31 00:02:08;;;;;;;6.68;3.95;;;12.00;99.90;;;;;;4996366;28;20110;-53
2021/05/31 00:04:33;;;;;;;5.03;3.95;;;11.90;99.90;;;;;;5002837;28;20048;-54
2021/05/31 00:07:02;;;;;;;7.47;4.60;;;11.80;99.90;;;;;;4983502;28;20049;-56
2021/05/31 00:09:28;;;;;;;6.28;4.18;;;11.70;99.90;;;;;;4990276;28;20022;-51
2021/05/31 00:11:53;;;;;;;9.07;4.30;;;11.70;99.90;;;;;;4997239;28;20075;-56
2021/05/31 00:14:19;;;;;;;9.05;4.10;;;11.60;99.90;;;;;;5001003;28;20026;-58
2021/05/31 00:16:45;;;;;;;6.70;4.40;;;11.60;99.90;;;;;;5002557;28;20134;-56
2021/05/31 00:19:12;;;;;;;7.60;3.85;;;11.50;99.90;;;;;;4993138;28;20045;-56
2021/05/31 00:21:38;;;;;;;6.70;3.92;;;11.50;99.90;;;;;;4999751;28;20026;-57
2021/05/31 00:24:04;;;;;;;11.00;4.38;;;11.50;99.90;;;;;;4997220;28;20034;-57
2021/05/31 00:26:30;;;;;;;8.68;4.05;;;11.50;99.90;;;;;;4993729;28;20139;-56
2021/05/31 00:28:55;;;;;;;6.32;4.50;;;11.50;99.90;;;;;;4985423;28;20689;-57
2021/05/31 00:31:21;;;;;;;8.00;4.35;;;11.50;99.90;;;;;;5000384;28;20105;-58
2021/05/31 00:33:46;;;;;;;5.63;3.75;;;11.50;99.90;;;;;;5000155;28;20399;-57
2021/05/31 00:36:12;;;;;;;8.60;4.32;;;11.50;99.90;;;;;;4999260;28;20088;-57
2021/05/31 00:38:40;;;;;;;11.73;4.53;;;11.60;99.90;;;;;;5000114;28;20396;-57
2021/05/31 00:41:07;;;;;;;13.05;4.10;;;11.50;99.90;;;;;;4992864;28;20042;-57
2021/05/31 00:43:33;;;;;;;8.52;4.00;;;11.50;99.90;;;;;;4992435;28;20022;-56
2021/05/31 00:46:07;;;;;;;6.47;4.03;;;11.60;99.90;;;;;;4986341;28;20126;-57
2021/05/31 00:48:34;;;;;;;8.57;4.15;;;11.50;99.90;;;;;;4990318;28;20098;-56
2021/05/31 00:51:02;;;;;;;8.43;4.50;;;11.50;99.90;;;;;;4987581;28;20030;-57
2021/05/31 00:53:29;;;;;;;5.93;3.97;;;11.50;99.90;;;;;;4997416;28;20054;-54
2021/05/31 00:55:55;;;;;;;8.10;4.28;;;11.50;99.90;;;;;;4997845;28;20791;-56
2021/05/31 00:58:24;;;;;;;8.00;4.25;;;11.50;99.90;;;;;;4994814;28;20462;-57
2021/05/31 01:00:50;;;;;;;9.50;4.20;;;11.40;99.90;;;;;;5000262;28;20065;-57
2021/05/31 01:03:16;;;;;;;6.50;4.53;;;11.40;99.90;;;;;;4991620;28;20066;-57
2021/05/31 01:05:41;;;;;;;10.43;4.80;;;11.40;99.90;;;;;;4997937;28;20484;-54
2021/05/31 01:08:11;;;;;;;9.57;4.18;;;11.30;99.90;;;;;;5000149;28;20097;-53
2021/05/31 01:11:09;;;;;;;6.05;4.45;;;11.30;99.90;;;;;;4988776;28;20377;-57
2021/05/31 01:14:09;;;;;;;7.32;4.85;;;11.30;99.90;;;;;;4992642;28;20054;-55
2021/05/31 01:16:48;;;;;;;6.70;4.32;;;11.20;99.90;;;;;;5000886;28;20523;-57
2021/05/31 01:19:38;;;;;;;7.55;3.90;;;11.20;99.90;;;;;;4990404;28;20076;-54
2021/05/31 01:22:08;;;;;;;5.47;3.50;;;11.10;99.90;;;;;;4986397;28;20030;-57
2021/05/31 01:24:52;;;;;;;9.60;3.75;;;11.20;99.90;;;;;;4992707;28;20110;-57
2021/05/31 01:27:37;;;;;;;6.28;3.88;;;11.20;99.90;;;;;;4993179;28;20062;-55
2021/05/31 01:30:09;;;;;;;8.73;4.93;;;11.20;99.90;;;;;;4989731;28;20034;-57
2021/05/31 01:32:43;;;;;;;4.97;3.90;;;11.30;99.90;;;;;;4989944;28;20034;-55
2021/05/31 01:35:11;;;;;;;8.45;4.47;;;11.40;99.90;;;;;;4993547;28;20471;-57
2021/05/31 01:37:40;;;;;;;6.78;3.85;;;11.50;99.90;;;;;;4991556;28;20030;-56
2021/05/31 01:40:08;;;;;;;10.50;4.13;;;11.40;99.90;;;;;;4992732;28;20026;-57
2021/05/31 01:42:35;;;;;;;9.90;4.38;;;11.40;99.90;;;;;;5005882;28;20104;-56
2021/05/31 01:45:01;;;;;;;7.63;4.10;;;11.40;99.90;;;;;;4997584;28;20029;-54
2021/05/31 01:47:28;;;;;;;8.13;4.63;;;11.30;99.90;;;;;;5001886;28;20030;-57
2021/05/31 01:49:54;;;;;;;6.85;4.22;;;11.20;99.90;;;;;;5003173;28;20100;-56
2021/05/31 01:52:22;;;;;;;6.03;4.57;;;11.20;99.90;;;;;;5000269;28;20034;-58
2021/05/31 01:54:53;;;;;;;7.93;4.68;;;11.20;99.90;;;;;;4998030;28;20026;-56
2021/05/31 01:57:20;;;;;;;9.18;4.55;;;11.00;99.90;;;;;;4999420;28;20036;-57
2021/05/31 01:59:46;;;;;;;8.20;4.63;;;10.90;99.90;;;;;;5001094;28;20035;-55
2021/05/31 02:02:11;;;;;;;8.85;4.40;;;10.80;99.90;;;;;;5001522;28;20427;-55
2021/05/31 02:04:37;;;;;;;6.38;4.57;;;10.70;99.90;;;;;;4993583;28;20561;-54
2021/05/31 02:07:03;;;;;;;10.70;5.10;;;10.60;99.90;;;;;;5003764;28;20102;-56
2021/05/31 02:09:28;;;;;;;7.78;4.85;;;10.50;99.90;;;;;;4998620;28;20403;-56
2021/05/31 02:12:03;;;;;;;9.70;4.18;;;10.60;99.90;;;;;;4995436;28;20030;-57
2021/05/31 02:14:50;;;;;;;6.50;4.13;;;10.60;99.90;;;;;;4997558;28;20037;-57
2021/05/31 02:17:34;;;;;;;7.63;4.35;;;10.60;99.90;;;;;;4994823;28;20084;-55
2021/05/31 02:20:04;;;;;;;9.48;4.63;;;10.60;99.90;;;;;;4985872;28;20426;-56
2021/05/31 02:22:34;;;;;;;5.00;3.92;;;10.60;99.90;;;;;;4989822;28;20564;-57
2021/05/31 02:25:00;;;;;;;8.57;4.90;;;10.60;99.90;;;;;;4992210;28;20038;-57
2021/05/31 02:27:27;;;;;;;10.27;4.55;;;10.60;99.90;;;;;;5001186;28;20030;-57
2021/05/31 02:29:53;;;;;;;8.32;4.45;;;10.60;99.90;;;;;;5002422;28;20583;-55
2021/05/31 02:32:19;;;;;;;11.77;5.63;;;10.60;99.90;;;;;;5005790;28;20033;-56
2021/05/31 02:34:44;;;;;;;6.72;4.45;;;10.60;99.90;;;;;;5002626;28;20403;-56
2021/05/31 02:37:13;;;;;;;8.25;4.22;;;10.60;99.90;;;;;;5000994;28;20098;-54
2021/05/31 02:39:39;;;;;;;10.68;4.72;;;10.60;99.90;;;;;;4992949;28;20023;-57
2021/05/31 02:42:05;;;;;;;10.18;5.20;;;10.50;99.90;;;;;;4998000;28;20492;-58
2021/05/31 02:44:30;;;;;;;8.15;4.68;;;10.40;99.90;;;;;;5002845;28;20033;-57
2021/05/31 02:46:56;;;;;;;8.25;4.80;;;10.30;99.90;;;;;;5005671;28;20025;-55
2021/05/31 02:49:22;;;;;;;6.47;4.32;;;10.30;99.90;;;;;;5004061;28;20030;-55
2021/05/31 02:51:47;;;;;;;9.68;4.70;;;10.20;99.90;;;;;;5001843;28;20112;-54
2021/05/31 02:54:13;;;;;;;13.82;5.25;;;10.20;99.90;;;;;;5002652;28;20154;-56
2021/05/31 02:56:39;;;;;;;10.77;5.30;;;10.20;99.90;;;;;;5000684;28;20030;-54
2021/05/31 02:59:05;;;;;;;6.70;4.50;;;10.10;99.90;;;;;;5004475;28;20022;-55
2021/05/31 03:01:31;;;;;;;6.32;4.80;;;10.10;99.90;;;;;;5004103;28;20044;-56
2021/05/31 03:03:57;;;;;;;7.93;4.68;;;10.10;99.90;;;;;;5004160;28;20030;-55
2021/05/31 03:06:23;;;;;;;7.90;5.05;;;10.10;99.90;;;;;;4997828;28;20571;-55
2021/05/31 03:08:48;;;;;;;8.15;5.13;;;10.00;99.90;;;;;;4997607;28;20037;-54
2021/05/31 03:11:14;;;;;;;10.57;5.63;;;10.00;99.90;;;;;;4993883;28;20113;-60
2021/05/31 03:13:40;;;;;;;7.60;4.78;;;10.00;99.90;;;;;;4999748;28;20018;-57
2021/05/31 03:16:06;;;;;;;6.32;4.75;;;10.00;99.90;;;;;;5004322;28;20086;-56
2021/05/31 03:18:31;;;;;;;10.10;5.47;;;10.00;99.90;;;;;;5004041;28;20129;-54
2021/05/31 03:20:57;;;;;;;9.63;5.72;;;10.00;99.90;;;;;;5000622;28;20023;-60
2021/05/31 03:23:22;;;;;;;11.05;6.22;;;10.00;99.90;;;;;;5003269;28;20019;-58
2021/05/31 03:25:48;;;;;;;10.55;5.47;;;9.90;99.90;;;;;;5002151;28;20368;-60
2021/05/31 03:28:14;;;;;;;10.30;5.43;;;9.90;99.90;;;;;;5005004;28;20092;-59
2021/05/31 03:30:40;;;;;;;8.82;5.50;;;9.90;99.90;;;;;;4990411;28;20073;-57
2021/05/31 03:33:05;;;;;;;11.68;5.45;;;9.90;99.90;;;;;;4997156;28;20033;-57
2021/05/31 03:35:31;;;;;;;15.05;7.38;;;9.80;99.90;;;;;;4995272;28;20072;-60
2021/05/31 03:37:57;;;;;;;7.53;5.32;;;9.80;99.90;;;;;;4993281;28;20084;-57
2021/05/31 03:40:23;;;;;;;11.98;6.88;;;9.70;99.90;;;;;;4999724;28;20022;-56
2021/05/31 03:42:55;;;;;;;9.52;5.45;;;9.80;99.90;;;;;;5001102;28;20022;-58
2021/05/31 03:45:22;;;;;;;9.50;4.90;;;9.80;99.90;;;;;;5000293;28;20038;-55
2021/05/31 03:47:48;;;;;;;10.50;4.50;;;9.80;99.90;;;;;;5000367;28;20045;-54
2021/05/31 03:50:14;;;;;;;9.73;4.88;;;9.90;99.90;;;;;;4994188;28;20061;-55
2021/05/31 03:52:40;;;;;;;8.57;4.75;;;10.00;99.90;;;;;;5003689;28;20403;-55
2021/05/31 03:55:08;;;;;;;11.90;5.22;;;10.00;99.90;;;;;;4992106;28;20027;-58
2021/05/31 03:57:36;;;;;;;6.47;4.70;;;10.10;99.90;;;;;;5003693;28;20057;-57
2021/05/31 04:00:07;;;;;;;11.02;4.70;;;10.10;99.90;;;;;;4999160;28;20033;-57
2021/05/31 04:02:33;;;;;;;8.85;4.88;;;10.20;99.90;;;;;;5001897;28;20035;-56
2021/05/31 04:04:59;;;;;;;9.10;5.00;;;10.20;99.90;;;;;;4988988;28;20093;-58
2021/05/31 04:12:55;;;;;;;8.70;5.10;;;10.30;99.90;;;;;;4996669;28;20107;-56
2021/05/31 04:15:21;;;;;;;6.35;4.15;;;10.40;99.90;;;;;;5003708;28;20054;-57
2021/05/31 04:17:47;;;;;;;11.15;4.70;;;10.40;99.90;;;;;;5001533;28;20157;-57
2021/05/31 04:20:13;;;;;;;11.10;4.97;;;10.50;99.90;;;;;;5004839;28;20539;-58
2021/05/31 04:22:39;;;;;;;7.57;4.32;;;10.60;99.90;;;;;;5000345;28;20403;-54
2021/05/31 04:25:06;;;;;;;6.18;4.47;;;10.80;99.90;;;;;;5003013;28;20041;-55
2021/05/31 04:27:32;;;;;;;7.95;4.50;;;11.10;99.90;;;;;;5000779;28;20030;-56
2021/05/31 04:29:58;;;;;;;6.82;3.88;;;11.90;99.90;;;;;;5002862;28;20032;-54
2021/05/31 04:32:23;;;;;;;4.63;3.65;;;12.90;99.90;;;;;;5003135;28;20041;-54
2021/05/31 04:34:49;;;;;;;4.75;3.20;;;14.00;99.90;;;;;;4991232;28;20566;-57
2021/05/31 04:37:15;;;;;;;5.53;4.03;;;15.40;99.90;;;;;;4995779;28;20373;-58
2021/05/31 04:39:40;;;;;;;6.25;3.40;;;16.60;99.90;;;;;;4991552;28;20056;-57
2021/05/31 04:42:06;;;;;;;7.38;3.92;;;17.10;99.90;;;;;;5001327;28;20041;-56
2021/05/31 04:44:33;;;;;;;10.23;4.53;;;18.20;97.60;;;;;;5002485;28;20620;-55
2021/05/31 04:46:59;;;;;;;6.70;3.72;;;18.40;96.20;;;;;;4983307;28;20033;-55
2021/05/31 04:49:24;;;;;;;7.68;3.53;;;20.10;94.10;;;;;;4997850;28;20034;-60
2021/05/31 04:51:51;;;;;;;7.03;3.20;;;21.00;91.40;;;;;;5000036;28;20101;-57
2021/05/31 04:54:17;;;;;;;5.65;3.03;;;21.30;87.10;;;;;;4998571;28;20034;-56
2021/05/31 04:56:42;;;;;;;5.45;3.15;;;21.50;85.30;;;;;;4998434;28;20029;-54
2021/05/31 04:59:08;;;;;;;6.18;3.05;;;22.60;80.40;;;;;;5002446;28;20506;-55
2021/05/31 05:01:34;;;;;;;4.93;3.25;;;22.70;77.40;;;;;;5002654;28;20518;-57
2021/05/31 05:04:00;;;;;;;4.93;3.45;;;23.30;73.50;;;;;;5002520;28;20506;-58
2021/05/31 05:06:26;;;;;;;7.55;4.20;;;23.70;70.10;;;;;;4998638;28;20045;-57
2021/05/31 05:08:53;;;;;;;5.22;3.38;;;22.90;70.90;;;;;;4995981;28;20034;-60
2021/05/31 05:11:22;;;;;;;2.97;2.42;;;23.30;70.80;;;;;;4998723;28;20514;-59
2021/05/31 05:13:50;;;;;;;4.88;2.95;;;24.20;66.10;;;;;;4995070;28;20057;-58
2021/05/31 05:16:16;;;;;;;6.00;2.97;;;24.60;65.00;;;;;;4991493;28;20555;-57
2021/05/31 05:18:46;;;;;;;8.00;3.17;;;24.00;63.80;;;;;;5006091;28;20029;-59
2021/05/31 05:21:12;;;;;;;6.82;2.70;;;23.50;65.10;;;;;;5000483;28;20056;-58
2021/05/31 05:23:37;;;;;;;4.63;3.00;;;24.30;62.80;;;;;;5005519;28;20466;-54
2021/05/31 05:26:03;;;;;;;4.38;3.08;;;25.00;62.60;;;;;;5000602;28;20484;-55
2021/05/31 05:28:29;;;;;;;6.05;3.08;;;25.20;61.90;;;;;;4999793;28;20025;-57
2021/05/31 05:30:55;;;;;;;5.20;3.40;;;26.00;59.10;;;;;;5005561;28;20037;-59
2021/05/31 05:33:21;;;;;;;3.83;2.42;;;26.90;56.10;;;;;;4999278;28;20491;-59
2021/05/31 05:35:56;;;;;;;4.25;2.65;;;27.10;54.80;;;;;;4993592;28;20030;-58
2021/05/31 05:48:36;;;;;;;4.82;2.60;;;28.20;52.10;;;;;;5003555;28;20053;-59
2021/05/31 05:51:06;;;;;;;6.07;2.72;;;28.10;51.80;;;;;;5002796;28;20030;-59
2021/05/31 05:53:36;;;;;;;6.35;3.22;;;28.70;50.90;;;;;;5005182;28;20057;-58
2021/05/31 05:56:05;;;;;;;4.35;2.63;;;28.40;50.00;;;;;;4993865;28;20073;-57
2021/05/31 05:58:31;;;;;;;5.30;2.75;;;28.70;51.10;;;;;;5002762;28;20335;-60
2021/05/31 06:00:57;;;;;;;3.90;2.72;;;29.40;49.60;;;;;;4987006;28;20105;-58
2021/05/31 06:03:24;;;;;;;5.40;3.05;;;28.20;49.60;;;;;;4978361;28;20105;-60
2021/05/31 06:05:50;;;;;;;12.60;3.35;;;28.80;50.00;;;;;;5005137;28;20496;-58
2021/05/31 06:08:15;;;;;;;4.82;3.28;;;29.00;49.10;;;;;;4997105;28;20038;-58
2021/05/31 06:10:41;;;;;;;5.53;2.97;;;29.60;48.20;;;;;;5000419;28;20085;-58
2021/05/31 06:13:06;;;;;;;3.50;2.58;;;29.30;48.30;;;;;;4997646;28;20027;-59
2021/05/31 06:15:32;;;;;;;9.27;3.58;;;28.30;48.50;;;;;;4993540;28;20022;-60
2021/05/31 06:17:58;;;;;;;6.38;3.00;;;28.50;48.90;;;;;;4998838;28;20037;-60
2021/05/31 06:20:23;;;;;;;6.53;3.10;;;30.10;49.40;;;;;;5002635;28;20029;-60
2021/05/31 06:22:50;;;;;;;4.20;2.88;;;29.80;48.70;;;;;;5000161;28;20045;-58
2021/05/31 06:25:15;;;;;;;8.25;3.33;;;31.40;46.50;;;;;;5005159;28;20042;-58
2021/05/31 06:27:41;;;;;;;5.88;2.60;;;30.60;44.90;;;;;;4999942;28;20022;-60
2021/05/31 06:30:08;;;;;;;7.90;3.67;;;29.50;44.90;;;;;;5005108;28;20109;-60
2021/05/31 06:32:33;;;;;;;4.05;2.50;;;29.20;46.40;;;;;;5003347;28;20146;-61
2021/05/31 06:34:59;;;;;;;4.32;2.78;;;30.70;45.60;;;;;;4993011;28;20485;-60
2021/05/31 06:37:25;;;;;;;5.38;2.95;;;30.50;45.20;;;;;;4992313;28;20109;-59
2021/05/31 06:39:50;;;;;;;4.03;2.70;;;29.50;45.20;;;;;;4998704;28;20030;-60
2021/05/31 06:42:16;;;;;;;10.45;2.65;;;29.60;44.00;;;;;;5004207;28;20495;-60
2021/05/31 06:44:42;;;;;;;12.98;3.00;;;29.30;45.30;;;;;;5004910;28;20434;-59
2021/05/31 06:47:08;;;;;;;4.25;2.70;;;29.20;44.80;;;;;;5003646;28;20603;-60
2021/05/31 06:49:37;;;;;;;7.68;3.00;;;29.20;44.00;;;;;;5004665;28;20376;-60
2021/05/31 06:52:04;;;;;;;5.57;2.55;;;29.20;45.00;;;;;;5002243;28;20480;-60
2021/05/31 06:54:31;;;;;;;6.75;2.92;;;29.20;45.60;;;;;;4957815;28;20045;-59
2021/05/31 06:56:58;;;;;;;7.28;2.85;;;29.60;46.10;;;;;;4990145;28;20435;-60
2021/05/31 06:59:24;;;;;;;4.18;2.88;;;29.40;43.30;;;;;;4989461;28;20049;-59
2021/05/31 07:01:50;;;;;;;7.45;3.15;;;29.00;44.20;;;;;;4997668;28;20058;-57
2021/05/31 07:04:18;;;;;;;5.13;3.10;;;29.50;45.40;;;;;;4986334;28;20448;-58
2021/05/31 07:06:45;;;;;;;3.88;2.65;;;29.30;44.10;;;;;;4993761;28;20038;-59
2021/05/31 07:09:14;;;;;;;6.25;2.63;;;29.30;43.90;;;;;;4992843;28;20619;-59
2021/05/31 07:11:45;;;;;;;5.03;2.50;;;29.40;45.10;;;;;;4990269;28;20030;-60
2021/05/31 07:14:17;;;;;;;3.55;2.40;;;30.60;42.70;;;;;;4988527;28;20034;-58
2021/05/31 07:16:43;;;;;;;7.40;2.63;;;30.40;42.90;;;;;;4992555;28;20130;-60
2021/05/31 07:19:13;;;;;;;5.25;2.60;;;30.50;41.40;;;;;;5002417;28;20029;-59
2021/05/31 07:21:41;;;;;;;4.85;2.67;;;30.30;42.00;;;;;;5000442;28;20030;-58
2021/05/31 07:24:09;;;;;;;3.10;2.03;;;30.10;42.70;;;;;;5002740;28;20037;-60
2021/05/31 07:26:36;;;;;;;7.35;2.65;;;30.00;42.80;;;;;;5003863;28;20034;-61
2021/05/31 07:29:03;;;;;;;4.82;2.40;;;31.00;42.90;;;;;;4993124;28;20038;-59
2021/05/31 07:31:28;;;;;;;5.32;2.40;;;31.00;41.50;;;;;;4998990;28;20046;-58
2021/05/31 07:33:54;;;;;;;6.50;2.45;;;31.10;40.70;;;;;;4995629;28;20073;-60
2021/05/31 07:36:19;;;;;;;4.60;2.45;;;31.50;42.30;;;;;;4999588;28;20116;-60
2021/05/31 07:38:45;;;;;;;6.88;2.78;;;31.60;40.70;;;;;;4982592;28;20049;-60
2021/05/31 07:41:11;;;;;;;5.32;1.98;;;32.70;39.40;;;;;;4998742;28;20054;-61
2021/05/31 07:43:37;;;;;;;4.93;2.05;;;33.50;38.80;;;;;;5000738;28;20069;-60
2021/05/31 07:46:03;;;;;;;5.13;2.40;;;31.80;37.80;;;;;;4995778;28;20034;-60
2021/05/31 07:48:32;;;;;;;9.82;2.35;;;30.50;40.20;;;;;;4999776;28;20065;-59
2021/05/31 07:51:14;;;;;;;50.83;4.30;;;29.60;40.50;;;;;;5002951;28;20025;-60
2021/05/31 07:53:40;;;;;;;5.55;2.25;;;29.90;39.60;;;;;;5000326;28;20523;-59
2021/05/31 07:56:06;;;;;;;8.70;2.22;;;30.50;39.40;;;;;;4981301;28;20073;-58
2021/05/31 07:58:31;;;;;;;6.45;1.80;;;31.30;38.80;;;;;;4999439;28;20483;-60
2021/05/31 08:00:58;;;;;;;3.13;2.05;;;30.80;37.00;;;;;;5002511;28;20030;-56
2021/05/31 08:03:23;;;;;;;5.32;2.08;;;30.60;38.10;;;;;;4998310;28;20418;-59
2021/05/31 08:05:49;;;;;;;4.38;2.20;;;31.80;37.50;;;;;;5001806;28;20105;-60
2021/05/31 08:08:14;;;;;;;4.75;2.40;;;31.80;37.50;;;;;;4995968;28;20476;-59
2021/05/31 08:10:40;;;;;;;5.60;2.65;;;31.60;37.40;;;;;;4996695;28;20373;-58
2021/05/31 08:13:06;;;;;;;3.85;2.10;;;32.00;35.30;;;;;;4999833;28;20377;-59
2021/05/31 08:15:31;;;;;;;2.55;1.73;;;32.80;35.90;;;;;;4997776;28;20670;-59
2021/05/31 08:17:59;;;;;;;6.88;2.38;;;32.20;35.90;;;;;;4994871;28;20025;-60
2021/05/31 08:20:25;;;;;;;2.67;1.95;;;31.00;36.50;;;;;;4994796;28;20038;-58
2021/05/31 08:22:50;;;;;;;8.57;2.70;;;30.60;36.80;;;;;;5000608;28;20035;-59
2021/05/31 08:25:17;;;;;;;6.10;2.53;;;30.50;37.40;;;;;;4993209;28;20080;-61
2021/05/31 08:27:44;;;;;;;3.85;2.25;;;30.30;37.30;;;;;;4990844;28;20037;-60
2021/05/31 08:30:11;;;;;;;4.30;2.35;;;30.40;38.40;;;;;;4992270;28;20031;-60
2021/05/31 08:32:36;;;;;;;3.95;2.45;;;31.10;38.40;;;;;;4995476;28;20157;-59
2021/05/31 08:35:02;;;;;;;5.55;2.40;;;32.00;39.30;;;;;;5004722;28;20064;-57
2021/05/31 08:37:30;;;;;;;4.20;2.30;;;31.80;36.70;;;;;;4989599;28;20054;-60
2021/05/31 08:39:56;;;;;;;3.47;2.20;;;31.30;37.40;;;;;;4999357;28;20530;-61
2021/05/31 08:42:22;;;;;;;10.27;3.75;;;32.70;38.40;;;;;;4996406;28;20034;-59
2021/05/31 08:44:48;;;;;;;7.53;2.50;;;31.90;38.80;;;;;;5003289;28;20026;-61
2021/05/31 08:47:14;;;;;;;9.65;2.75;;;31.20;38.40;;;;;;4996577;28;20026;-57
2021/05/31 08:49:40;;;;;;;4.82;2.20;;;31.90;38.20;;;;;;4991229;28;20070;-61
2021/05/31 08:52:06;;;;;;;3.80;2.28;;;32.40;37.70;;;;;;4998123;28;20129;-60
2021/05/31 08:54:32;;;;;;;4.50;2.72;;;32.20;38.20;;;;;;4975978;28;20463;-61
2021/05/31 08:56:57;;;;;;;4.70;2.50;;;32.00;38.60;;;;;;5000771;28;20113;-60
2021/05/31 08:59:23;;;;;;;4.50;2.42;;;32.10;38.10;;;;;;5002916;28;20073;-58
2021/05/31 09:01:49;;;;;;;8.55;2.42;;;31.90;40.10;;;;;;4998553;28;20050;-58
2021/05/31 09:04:15;;;;;;;5.55;2.20;;;31.40;39.00;;;;;;5002850;28;20026;-57
2021/05/31 09:06:52;;;;;;;5.93;2.47;;;31.90;38.30;;;;;;4990749;28;20038;-60
2021/05/31 09:09:18;;;;;;;2.80;2.05;;;31.70;38.90;;;;;;4994504;28;20026;-61
2021/05/31 09:11:56;;;;;;;3.90;2.40;;;31.10;38.10;;;;;;4997344;28;20026;-58
2021/05/31 09:14:23;;;;;;;3.47;2.55;;;31.10;39.60;;;;;;5003595;28;20022;-59
2021/05/31 09:16:51;;;;;;;4.57;2.58;;;31.00;39.90;;;;;;4996378;28;20443;-60
2021/05/31 09:19:17;;;;;;;4.00;2.50;;;30.40;39.10;;;;;;4999471;28;20061;-60
2021/05/31 09:21:45;;;;;;;3.85;2.83;;;29.50;41.20;;;;;;4994206;28;20383;-58
2021/05/31 09:24:14;;;;;;;8.75;2.80;;;29.70;41.60;;;;;;4999125;28;20022;-60
2021/05/31 09:26:46;;;;;;;6.40;2.63;;;30.30;39.40;;;;;;4986181;28;20026;-63
2021/05/31 09:29:13;;;;;;;4.53;2.72;;;30.90;38.20;;;;;;4969448;28;20046;-60
2021/05/31 09:31:38;;;;;;;2.97;2.38;;;30.80;38.90;;;;;;4993303;28;20024;-59
2021/05/31 09:34:07;;;;;;;5.68;2.60;;;30.30;40.60;;;;;;4998710;28;20014;-59
2021/05/31 09:36:49;;;;;;;3.25;2.33;;;30.50;39.70;;;;;;4996022;28;20027;-61
2021/05/31 09:39:14;;;;;;;6.55;2.60;;;31.60;38.30;;;;;;4987384;28;20654;-60
2021/05/31 09:41:40;;;;;;;5.00;2.40;;;29.90;40.30;;;;;;4986887;28;20034;-57
2021/05/31 09:44:11;;;;;;;5.53;2.78;;;29.20;40.70;;;;;;4993908;28;20475;-59
2021/05/31 09:46:40;;;;;;;5.30;2.50;;;28.70;42.10;;;;;;4993567;28;20037;-58
2021/05/31 09:49:34;;;;;;;5.80;2.40;;;28.50;43.40;;;;;;5002464;28;20376;-61
2021/05/31 09:52:04;;;;;;;5.03;2.90;;;28.90;43.00;;;;;;4997401;28;20046;-62
2021/05/31 09:54:36;;;;;;;4.50;3.03;;;27.80;42.30;;;;;;4996541;28;20054;-61
2021/05/31 09:57:25;;;;;;;4.03;2.58;;;26.90;46.00;;;;;;4972726;28;20448;-59
2021/05/31 09:59:57;;;;;;;4.95;2.97;;;27.00;43.20;;;;;;5002586;28;20022;-60
2021/05/31 10:02:52;;;;;;;4.72;2.75;;;26.60;46.50;;;;;;5013402;28;20026;-60
2021/05/31 10:05:38;;;;;;;7.78;3.40;;;26.60;44.50;;;;;;4997729;28;20385;-58
2021/05/31 10:10:35;;;;;;;7.30;3.28;;;27.00;43.30;;;;;;4998630;28;20476;-60
2021/05/31 10:13:02;;;;;;;4.00;3.10;;;27.80;45.10;;;;;;5001812;28;20018;-59
2021/05/31 10:15:30;;;;;;;8.35;3.28;;;27.80;44.20;;;;;;4994950;28;20022;-60
2021/05/31 10:17:59;;;;;;;8.57;3.30;;;27.60;42.80;;;;;;4996396;28;20018;-59
2021/05/31 10:20:28;;;;;;;7.13;2.97;;;28.20;42.80;;;;;;5002496;28;20026;-60
2021/05/31 10:22:54;;;;;;;7.30;3.22;;;28.20;43.00;;;;;;5000629;28;20070;-59
2021/05/31 10:25:22;;;;;;;6.10;3.00;;;28.00;43.90;;;;;;4993153;28;20026;-60
2021/05/31 10:27:55;;;;;;;5.15;2.90;;;27.90;44.10;;;;;;4989658;28;20030;-59
2021/05/31 10:30:21;;;;;;;;;;;28.10;44.00;;;;;;4992374;28;20038;-59
2021/05/31 10:32:48;;;;;;;5.72;3.05;;;28.20;44.80;;;;;;4991014;28;19914;-59
2021/05/31 10:35:15;;;;;;;8.93;3.65;;;27.50;45.80;;;;;;4988475;28;20025;-59
2021/05/31 10:37:54;;;;;;;5.25;2.83;;;27.10;46.50;;;;;;4991305;28;20022;-58
2021/05/31 10:40:22;;;;;;;6.85;2.80;;;27.40;46.10;;;;;;4997682;28;20037;-59
2021/05/31 10:42:55;;;;;;;5.65;3.28;;;27.20;47.40;;;;;;4996723;28;20492;-57
2021/05/31 10:45:26;;;;;;;8.18;3.72;;;27.60;46.60;;;;;;4995618;28;20029;-59
2021/05/31 10:47:55;;;;;;;6.65;3.17;;;27.20;44.50;;;;;;4997841;28;20038;-60
2021/05/31 10:50:29;;;;;;;4.72;3.00;;;27.10;46.00;;;;;;4988395;28;20039;-59
2021/05/31 10:52:56;;;;;;;6.13;3.50;;;27.50;45.50;;;;;;4997761;28;20021;-59
2021/05/31 10:55:22;;;;;;;5.45;2.95;;;26.90;44.50;;;;;;4982551;28;20038;-60
2021/05/31 10:57:48;;;;;;;8.02;2.97;;;27.10;45.20;;;;;;5002473;28;20459;-60
2021/05/31 11:00:31;;;;;;;4.95;2.80;;;27.70;43.30;;;;;;4997090;28;20120;-59
2021/05/31 11:03:05;;;;;;;6.32;3.25;;;27.70;43.40;;;;;;5007064;28;20808;-60
2021/05/31 11:05:33;;;;;;;6.47;3.38;;;27.30;43.80;;;;;;5000302;28;20106;-58
2021/05/31 11:07:59;;;;;;;7.57;3.08;;;27.10;44.80;;;;;;4994732;28;20056;-58
2021/05/31 11:10:30;;;;;;;6.07;2.65;;;27.50;43.60;;;;;;4996348;28;20026;-58
2021/05/31 11:12:57;;;;;;;6.60;2.80;;;27.60;41.50;;;;;;4995643;28;20083;-55
2021/05/31 11:15:34;;;;;;;4.70;2.58;;;27.30;40.80;;;;;;5000611;28;20030;-60
2021/05/31 11:18:03;;;;;;;4.72;3.10;;;27.20;41.90;;;;;;4990425;28;20018;-57
2021/05/31 11:20:29;;;;;;;5.63;3.50;;;26.90;41.80;;;;;;4997987;28;20030;-58
2021/05/31 11:22:59;;;;;;;5.18;2.90;;;26.70;42.00;;;;;;4998622;28;20026;-58
2021/05/31 11:25:26;;;;;;;8.95;2.88;;;26.80;42.10;;;;;;4991525;28;20216;-59
2021/05/31 11:28:10;;;;;;;5.20;2.88;;;26.90;42.40;;;;;;4990970;28;20030;-60
2021/05/31 11:30:36;;;;;;;4.13;2.45;;;27.20;42.70;;;;;;4987605;28;20058;-59
2021/05/31 11:33:05;;;;;;;4.82;2.88;;;27.10;41.80;;;;;;5000582;28;20030;-62
2021/05/31 11:35:35;;;;;;;4.28;2.78;;;27.00;41.50;;;;;;5009204;28;20067;-59
2021/05/31 11:38:01;;;;;;;6.90;3.58;;;26.50;40.80;;;;;;4987592;28;20019;-58
2021/05/31 11:40:29;;;;;;;5.53;3.10;;;26.50;41.60;;;;;;4990521;28;20499;-59
2021/05/31 11:42:58;;;;;;;5.25;3.55;;;26.30;43.60;;;;;;4994396;28;20414;-56
2021/05/31 11:45:26;;;;;;;5.38;2.85;;;26.20;41.30;;;;;;5006982;28;20113;-56
2021/05/31 11:47:56;;;;;;;4.20;2.70;;;25.90;43.50;;;;;;5000765;28;20025;-58
2021/05/31 11:50:23;;;;;;;6.03;3.10;;;25.90;43.60;;;;;;4991151;28;20085;-60
2021/05/31 11:52:49;;;;;;;4.60;2.90;;;25.80;42.70;;;;;;5004712;28;20022;-59
2021/05/31 11:55:21;;;;;;;5.18;2.63;;;26.00;44.50;;;;;;4992304;28;21188;-60
2021/05/31 11:57:47;;;;;;;7.28;2.95;;;25.70;41.50;;;;;;4985646;28;20051;-60
2021/05/31 12:00:31;;;;;;;3.70;2.55;;;26.00;41.50;;;;;;4994025;28;20567;-59
2021/05/31 12:02:57;;;;;;;3.25;2.30;;;26.20;41.30;;;;;;5001311;28;20036;-60
2021/05/31 12:05:37;;;;;;;3.08;2.75;;;26.50;44.00;;;;;;4995766;28;20480;-59
2021/05/31 12:08:10;;;;;;;3.00;2.35;;;26.70;41.10;;;;;;4994208;28;20018;-59
2021/05/31 12:10:43;;;;;;;4.20;2.38;;;26.70;41.40;;;;;;4990004;28;20042;-58
2021/05/31 12:13:09;;;;;;;5.93;2.63;;;26.90;41.20;;;;;;4995767;28;20026;-59
2021/05/31 12:15:36;;;;;;;4.68;2.58;;;26.70;40.70;;;;;;5001857;28;20081;-57
2021/05/31 12:18:16;;;;;;;4.38;2.47;;;26.40;43.60;;;;;;4991406;28;20019;-59
2021/05/31 12:20:42;;;;;;;3.90;2.28;;;26.40;43.10;;;;;;4996025;28;20022;-59
2021/05/31 12:23:22;;;;;;;5.85;2.47;;;26.40;40.60;;;;;;5000062;28;20104;-60
2021/05/31 12:25:48;;;;;;;6.07;2.72;;;26.60;42.00;;;;;;4995675;28;20060;-60
2021/05/31 12:28:16;;;;;;;5.63;3.00;;;26.90;42.70;;;;;;4989653;28;20026;-56
2021/05/31 12:30:49;;;;;;;6.28;3.50;;;26.50;42.80;;;;;;4999382;28;20026;-59
2021/05/31 12:33:15;;;;;;;4.30;2.80;;;25.80;42.60;;;;;;4993393;28;20102;-59
2021/05/31 12:35:46;;;;;;;3.97;2.92;;;25.70;43.30;;;;;;5001636;28;20518;-58
2021/05/31 12:38:12;;;;;;;6.55;2.72;;;26.00;42.50;;;;;;4986207;28;20040;-58
2021/05/31 12:40:41;;;;;;;3.03;2.40;;;26.40;43.00;;;;;;4989446;28;20026;-58
2021/05/31 12:43:08;;;;;;;4.80;2.42;;;26.30;42.20;;;;;;4986871;28;20037;-58
2021/05/31 12:45:49;;;;;;;3.65;2.42;;;26.00;42.60;;;;;;5007011;28;20034;-57
2021/05/31 12:48:22;;;;;;;5.45;2.38;;;25.90;42.40;;;;;;4998743;28;20030;-59
2021/05/31 12:50:53;;;;;;;3.67;2.60;;;25.80;43.90;;;;;;4989626;28;20040;-59
2021/05/31 12:53:26;;;;;;;4.75;2.13;;;25.30;43.70;;;;;;4997559;28;20080;-58
2021/05/31 12:55:59;;;;;;;5.25;2.75;;;24.90;45.00;;;;;;4989736;28;20453;-60
2021/05/31 12:58:26;;;;;;;3.83;2.88;;;24.80;44.10;;;;;;4985815;28;20049;-59
2021/05/31 13:00:52;;;;;;;4.53;2.70;;;25.00;43.60;;;;;;4989478;28;20056;-60
2021/05/31 13:03:20;;;;;;;5.32;3.40;;;24.90;43.30;;;;;;4998961;28;20034;-58
2021/05/31 13:05:51;;;;;;;2.92;2.47;;;24.90;43.60;;;;;;4993528;28;20038;-58
2021/05/31 13:08:19;;;;;;;7.65;2.67;;;25.00;43.80;;;;;;4994113;28;20030;-59
2021/05/31 13:10:48;;;;;;;4.47;2.42;;;25.10;45.40;;;;;;4997561;28;20064;-59